Thamesteel1 — V7OI7 — position and weather

sailwx.info

Track history (hours):
 
Tides and Currents Weather Stations Pressure Air Temp Water Temp Dewpoint Dewpoint Depression Visibility Wind Speed Wind Dir Waves Ship Positions

Thamesteel1

Last reported at 2014-Jan-31 18:18 UTC. Time now 2014-Oct-23 18:34 UTC.
Position N 38°08' E 024°45'.
Warning: this ship's position is months out of date.

Length 89 m; draft 4.8 m.

Type: Cargo ship. MMSI: 538003096.

Date/timePositionNaut miles runAvg speedWind from/ knotsBaromVisibWave heightAir tempDewpointWater temp
2014-Jan-31 18:18N 38°08' E 024°45'20 7.1
2014-Jan-31 15:32N 37°49' E 024°35'26 7.6
2014-Jan-31 12:06N 37°27' E 024°19'8 8.3
2014-Jan-31 11:12N 37°21' E 024°13'412 8.1
2014-Jan-29 08:15N 38°08' E 015°35'7 9.3
2014-Jan-29 07:33N 38°14' E 015°36'146 7.7
2014-Jan-28 12:31N 40°34' E 014°42'  
2014-Jan-22 07:16N 40°34' E 014°43'3 3.3
2014-Jan-22 06:14N 40°32' E 014°39'3 3.6
2014-Jan-22 05:22N 40°31' E 014°35'1 0.8
2014-Jan-22 04:32N 40°32' E 014°34'2 1.9
2014-Jan-22 03:31N 40°33' E 014°36'2 1.8
2014-Jan-22 02:30N 40°34' E 014°38'2 1.6
2014-Jan-22 01:05N 40°35' E 014°40'1 1.7
2014-Jan-22 00:33N 40°36' E 014°41'1 0.7
2014-Jan-21 22:22N 40°36' E 014°43'3 3.9
2014-Jan-21 21:33N 40°34' E 014°40'4 3.7
2014-Jan-21 20:29N 40°32' E 014°35'3 3.2
2014-Jan-21 19:32N 40°31' E 014°32'1 1.0
2014-Jan-21 18:33N 40°30' E 014°31'  
Track history (hours):
 
Tides and Currents Weather Stations Pressure Air Temp Water Temp Dewpoint Dewpoint Depression Visibility Wind Speed Wind Dir Waves Ship Positions

Thamesteel1

Last reported at 2014-Jan-31 18:18 UTC. Time now 2014-Oct-23 18:34 UTC.
Position N 38°08' E 024°45'.
Warning: this ship's position is months out of date.

Length 89 m; draft 4.8 m.

Type: Cargo ship. MMSI: 538003096.

Date/timePositionNaut miles runAvg speedWind from/ knotsBaromVisibWave heightAir tempDewpointWater temp
2014-Jan-31 18:18N 38°08' E 024°45'20 7.1
2014-Jan-31 15:32N 37°49' E 024°35'26 7.6
2014-Jan-31 12:06N 37°27' E 024°19'8 8.3
2014-Jan-31 11:12N 37°21' E 024°13'412 8.1
2014-Jan-29 08:15N 38°08' E 015°35'7 9.3
2014-Jan-29 07:33N 38°14' E 015°36'146 7.7
2014-Jan-28 12:31N 40°34' E 014°42'  
2014-Jan-22 07:16N 40°34' E 014°43'3 3.3
2014-Jan-22 06:14N 40°32' E 014°39'3 3.6
2014-Jan-22 05:22N 40°31' E 014°35'1 0.8
2014-Jan-22 04:32N 40°32' E 014°34'2 1.9
2014-Jan-22 03:31N 40°33' E 014°36'2 1.8
2014-Jan-22 02:30N 40°34' E 014°38'2 1.6
2014-Jan-22 01:05N 40°35' E 014°40'1 1.7
2014-Jan-22 00:33N 40°36' E 014°41'1 0.7
2014-Jan-21 22:22N 40°36' E 014°43'3 3.9
2014-Jan-21 21:33N 40°34' E 014°40'4 3.7
2014-Jan-21 20:29N 40°32' E 014°35'3 3.2
2014-Jan-21 19:32N 40°31' E 014°32'1 1.0
2014-Jan-21 18:33N 40°30' E 014°31'  

Dump ship's entire track history